sensor_id;sensor_type;location;lat;lon;timestamp;P1;durP1;ratioP1;P2;durP2;ratioP2
48751;SDS011;34544;48.836;9.174;2023-12-29T00:01:34;3.05;;;2.10;;
48751;SDS011;34544;48.836;9.174;2023-12-29T00:04:00;2.25;;;1.85;;
48751;SDS011;34544;48.836;9.174;2023-12-29T00:06:26;3.53;;;1.90;;
48751;SDS011;34544;48.836;9.174;2023-12-29T00:08:51;2.72;;;1.77;;
48751;SDS011;34544;48.836;9.174;2023-12-29T00:11:20;3.83;;;2.15;;
48751;SDS011;34544;48.836;9.174;2023-12-29T00:13:46;3.20;;;1.67;;
48751;SDS011;34544;48.836;9.174;2023-12-29T00:16:12;3.88;;;1.98;;
48751;SDS011;34544;48.836;9.174;2023-12-29T00:18:38;4.22;;;2.08;;
48751;SDS011;34544;48.836;9.174;2023-12-29T00:21:04;2.55;;;2.00;;
48751;SDS011;34544;48.836;9.174;2023-12-29T00:23:30;3.33;;;2.25;;
48751;SDS011;34544;48.836;9.174;2023-12-29T00:25:56;4.47;;;1.98;;
48751;SDS011;34544;48.836;9.174;2023-12-29T00:28:22;2.65;;;2.25;;
48751;SDS011;34544;48.836;9.174;2023-12-29T00:30:47;3.22;;;2.33;;
48751;SDS011;34544;48.836;9.174;2023-12-29T00:33:13;2.75;;;2.38;;
48751;SDS011;34544;48.836;9.174;2023-12-29T00:35:39;2.63;;;1.83;;
48751;SDS011;34544;48.836;9.174;2023-12-29T00:38:05;2.78;;;2.10;;
48751;SDS011;34544;48.836;9.174;2023-12-29T00:40:31;4.13;;;2.05;;
48751;SDS011;34544;48.836;9.174;2023-12-29T00:43:02;2.28;;;1.90;;
48751;SDS011;34544;48.836;9.174;2023-12-29T00:45:28;3.53;;;2.60;;
48751;SDS011;34544;48.836;9.174;2023-12-29T00:47:58;5.07;;;2.35;;
48751;SDS011;34544;48.836;9.174;2023-12-29T00:50:24;4.13;;;2.33;;
48751;SDS011;34544;48.836;9.174;2023-12-29T00:52:51;2.72;;;1.92;;
48751;SDS011;34544;48.836;9.174;2023-12-29T00:55:17;3.13;;;2.55;;
48751;SDS011;34544;48.836;9.174;2023-12-29T00:57:42;4.50;;;2.15;;
48751;SDS011;34544;48.836;9.174;2023-12-29T01:00:10;4.40;;;1.95;;
48751;SDS011;34544;48.836;9.174;2023-12-29T01:02:38;3.58;;;1.88;;
48751;SDS011;34544;48.836;9.174;2023-12-29T01:05:04;3.08;;;1.92;;
48751;SDS011;34544;48.836;9.174;2023-12-29T01:07:31;4.72;;;2.20;;
48751;SDS011;34544;48.836;9.174;2023-12-29T01:09:57;3.58;;;2.22;;
48751;SDS011;34544;48.836;9.174;2023-12-29T01:12:23;2.80;;;2.15;;
48751;SDS011;34544;48.836;9.174;2023-12-29T01:14:48;2.65;;;2.08;;
48751;SDS011;34544;48.836;9.174;2023-12-29T01:17:14;3.83;;;2.55;;
48751;SDS011;34544;48.836;9.174;2023-12-29T01:19:40;5.00;;;2.17;;
48751;SDS011;34544;48.836;9.174;2023-12-29T01:22:06;3.42;;;2.30;;
48751;SDS011;34544;48.836;9.174;2023-12-29T01:24:32;2.20;;;2.00;;
48751;SDS011;34544;48.836;9.174;2023-12-29T01:26:57;4.22;;;2.17;;
48751;SDS011;34544;48.836;9.174;2023-12-29T01:29:24;3.50;;;2.65;;
48751;SDS011;34544;48.836;9.174;2023-12-29T01:31:50;7.03;;;2.22;;
48751;SDS011;34544;48.836;9.174;2023-12-29T01:34:16;5.18;;;2.08;;
48751;SDS011;34544;48.836;9.174;2023-12-29T01:36:41;3.80;;;2.22;;
48751;SDS011;34544;48.836;9.174;2023-12-29T01:39:07;4.72;;;2.30;;
48751;SDS011;34544;48.836;9.174;2023-12-29T01:41:33;3.42;;;2.28;;
48751;SDS011;34544;48.836;9.174;2023-12-29T01:46:25;2.30;;;2.10;;
48751;SDS011;34544;48.836;9.174;2023-12-29T01:48:57;2.65;;;2.33;;
48751;SDS011;34544;48.836;9.174;2023-12-29T01:51:24;2.97;;;2.05;;
48751;SDS011;34544;48.836;9.174;2023-12-29T01:53:52;3.08;;;2.35;;
48751;SDS011;34544;48.836;9.174;2023-12-29T01:56:19;2.95;;;2.22;;
48751;SDS011;34544;48.836;9.174;2023-12-29T01:58:46;3.38;;;2.28;;
48751;SDS011;34544;48.836;9.174;2023-12-29T02:01:14;4.15;;;2.35;;
48751;SDS011;34544;48.836;9.174;2023-12-29T02:03:42;5.60;;;2.33;;
48751;SDS011;34544;48.836;9.174;2023-12-29T02:06:08;3.97;;;2.30;;
48751;SDS011;34544;48.836;9.174;2023-12-29T02:08:36;4.10;;;2.55;;
48751;SDS011;34544;48.836;9.174;2023-12-29T02:11:03;5.38;;;2.40;;
48751;SDS011;34544;48.836;9.174;2023-12-29T02:13:29;3.58;;;2.30;;
48751;SDS011;34544;48.836;9.174;2023-12-29T02:15:56;3.67;;;2.80;;
48751;SDS011;34544;48.836;9.174;2023-12-29T02:18:28;3.95;;;2.60;;
48751;SDS011;34544;48.836;9.174;2023-12-29T02:20:58;8.30;;;2.53;;
48751;SDS011;34544;48.836;9.174;2023-12-29T02:23:24;3.15;;;2.53;;
48751;SDS011;34544;48.836;9.174;2023-12-29T02:25:50;3.80;;;2.78;;
48751;SDS011;34544;48.836;9.174;2023-12-29T02:28:24;2.63;;;2.15;;
48751;SDS011;34544;48.836;9.174;2023-12-29T02:31:00;3.35;;;2.55;;
48751;SDS011;34544;48.836;9.174;2023-12-29T02:33:32;2.05;;;1.80;;
48751;SDS011;34544;48.836;9.174;2023-12-29T02:36:03;5.32;;;2.42;;
48751;SDS011;34544;48.836;9.174;2023-12-29T02:38:31;5.00;;;2.38;;
48751;SDS011;34544;48.836;9.174;2023-12-29T02:40:59;7.25;;;2.65;;
48751;SDS011;34544;48.836;9.174;2023-12-29T02:43:24;2.30;;;2.10;;
48751;SDS011;34544;48.836;9.174;2023-12-29T02:45:50;4.55;;;2.15;;
48751;SDS011;34544;48.836;9.174;2023-12-29T02:48:17;3.03;;;2.40;;
48751;SDS011;34544;48.836;9.174;2023-12-29T02:50:45;3.00;;;2.70;;
48751;SDS011;34544;48.836;9.174;2023-12-29T02:53:11;3.10;;;2.15;;
48751;SDS011;34544;48.836;9.174;2023-12-29T02:55:36;3.83;;;2.28;;
48751;SDS011;34544;48.836;9.174;2023-12-29T02:58:02;3.97;;;2.20;;
48751;SDS011;34544;48.836;9.174;2023-12-29T03:00:28;5.22;;;2.90;;
48751;SDS011;34544;48.836;9.174;2023-12-29T03:02:54;4.47;;;2.60;;
48751;SDS011;34544;48.836;9.174;2023-12-29T03:05:20;3.53;;;2.20;;
48751;SDS011;34544;48.836;9.174;2023-12-29T03:07:46;5.63;;;2.33;;
48751;SDS011;34544;48.836;9.174;2023-12-29T03:10:12;3.65;;;2.08;;
48751;SDS011;34544;48.836;9.174;2023-12-29T03:12:37;5.68;;;2.75;;
48751;SDS011;34544;48.836;9.174;2023-12-29T03:15:03;2.67;;;2.05;;
48751;SDS011;34544;48.836;9.174;2023-12-29T03:17:29;3.65;;;2.35;;
48751;SDS011;34544;48.836;9.174;2023-12-29T03:19:55;3.72;;;2.47;;
48751;SDS011;34544;48.836;9.174;2023-12-29T03:22:21;3.53;;;2.80;;
48751;SDS011;34544;48.836;9.174;2023-12-29T03:24:46;5.43;;;2.65;;
48751;SDS011;34544;48.836;9.174;2023-12-29T03:27:12;6.47;;;2.60;;
48751;SDS011;34544;48.836;9.174;2023-12-29T03:29:38;4.75;;;2.40;;
48751;SDS011;34544;48.836;9.174;2023-12-29T03:32:03;6.97;;;2.80;;
48751;SDS011;34544;48.836;9.174;2023-12-29T03:34:31;3.58;;;2.33;;
48751;SDS011;34544;48.836;9.174;2023-12-29T03:36:57;3.65;;;2.65;;
48751;SDS011;34544;48.836;9.174;2023-12-29T03:39:22;4.28;;;2.63;;
48751;SDS011;34544;48.836;9.174;2023-12-29T03:41:48;2.83;;;2.50;;
48751;SDS011;34544;48.836;9.174;2023-12-29T03:44:14;2.95;;;2.35;;
48751;SDS011;34544;48.836;9.174;2023-12-29T03:46:40;4.03;;;2.40;;
48751;SDS011;34544;48.836;9.174;2023-12-29T03:49:06;4.05;;;2.45;;
48751;SDS011;34544;48.836;9.174;2023-12-29T03:51:32;4.47;;;3.05;;
48751;SDS011;34544;48.836;9.174;2023-12-29T03:53:58;3.85;;;2.20;;
48751;SDS011;34544;48.836;9.174;2023-12-29T03:56:24;4.38;;;2.22;;
48751;SDS011;34544;48.836;9.174;2023-12-29T03:58:49;5.05;;;2.53;;
48751;SDS011;34544;48.836;9.174;2023-12-29T04:01:15;2.92;;;2.15;;
48751;SDS011;34544;48.836;9.174;2023-12-29T04:03:42;3.67;;;2.28;;
48751;SDS011;34544;48.836;9.174;2023-12-29T04:06:09;5.85;;;2.03;;
48751;SDS011;34544;48.836;9.174;2023-12-29T04:08:35;4.90;;;2.45;;
48751;SDS011;34544;48.836;9.174;2023-12-29T04:11:02;3.83;;;2.30;;
48751;SDS011;34544;48.836;9.174;2023-12-29T04:13:29;2.38;;;1.98;;
48751;SDS011;34544;48.836;9.174;2023-12-29T04:15:55;3.00;;;2.30;;
48751;SDS011;34544;48.836;9.174;2023-12-29T04:18:22;3.10;;;2.55;;
48751;SDS011;34544;48.836;9.174;2023-12-29T04:20:48;2.80;;;2.10;;
48751;SDS011;34544;48.836;9.174;2023-12-29T04:23:14;2.40;;;2.00;;
48751;SDS011;34544;48.836;9.174;2023-12-29T04:25:41;2.70;;;1.92;;
48751;SDS011;34544;48.836;9.174;2023-12-29T04:28:07;3.35;;;2.15;;
48751;SDS011;34544;48.836;9.174;2023-12-29T04:30:33;2.35;;;2.03;;
48751;SDS011;34544;48.836;9.174;2023-12-29T04:32:59;3.03;;;1.67;;
48751;SDS011;34544;48.836;9.174;2023-12-29T04:35:25;3.30;;;2.33;;
48751;SDS011;34544;48.836;9.174;2023-12-29T04:37:51;2.10;;;1.60;;
48751;SDS011;34544;48.836;9.174;2023-12-29T04:40:17;3.00;;;2.10;;
48751;SDS011;34544;48.836;9.174;2023-12-29T04:42:43;2.88;;;1.90;;
48751;SDS011;34544;48.836;9.174;2023-12-29T04:45:09;3.15;;;2.22;;
48751;SDS011;34544;48.836;9.174;2023-12-29T04:47:35;1.80;;;1.67;;
48751;SDS011;34544;48.836;9.174;2023-12-29T04:50:01;5.38;;;1.80;;
48751;SDS011;34544;48.836;9.174;2023-12-29T04:52:27;3.08;;;2.55;;
48751;SDS011;34544;48.836;9.174;2023-12-29T04:54:53;3.42;;;2.13;;
48751;SDS011;34544;48.836;9.174;2023-12-29T04:57:19;2.08;;;1.75;;
48751;SDS011;34544;48.836;9.174;2023-12-29T04:59:45;3.13;;;2.03;;
48751;SDS011;34544;48.836;9.174;2023-12-29T05:02:11;2.28;;;2.08;;
48751;SDS011;34544;48.836;9.174;2023-12-29T05:04:37;1.63;;;1.52;;
48751;SDS011;34544;48.836;9.174;2023-12-29T05:07:04;4.43;;;2.33;;
48751;SDS011;34544;48.836;9.174;2023-12-29T05:09:31;3.50;;;1.88;;
48751;SDS011;34544;48.836;9.174;2023-12-29T05:11:56;2.50;;;2.03;;
48751;SDS011;34544;48.836;9.174;2023-12-29T05:14:22;1.98;;;1.77;;
48751;SDS011;34544;48.836;9.174;2023-12-29T05:16:48;4.38;;;2.15;;
48751;SDS011;34544;48.836;9.174;2023-12-29T05:19:14;3.25;;;1.80;;
48751;SDS011;34544;48.836;9.174;2023-12-29T05:21:40;3.47;;;1.98;;
48751;SDS011;34544;48.836;9.174;2023-12-29T05:24:07;2.33;;;2.10;;
48751;SDS011;34544;48.836;9.174;2023-12-29T05:26:33;4.13;;;2.83;;
48751;SDS011;34544;48.836;9.174;2023-12-29T05:28:59;4.88;;;2.67;;
48751;SDS011;34544;48.836;9.174;2023-12-29T05:31:25;3.75;;;2.50;;
48751;SDS011;34544;48.836;9.174;2023-12-29T05:33:51;4.15;;;2.30;;
48751;SDS011;34544;48.836;9.174;2023-12-29T05:36:17;3.55;;;2.58;;
48751;SDS011;34544;48.836;9.174;2023-12-29T05:38:45;4.38;;;2.13;;
48751;SDS011;34544;48.836;9.174;2023-12-29T05:41:15;3.17;;;2.50;;
48751;SDS011;34544;48.836;9.174;2023-12-29T05:43:41;4.35;;;2.28;;
48751;SDS011;34544;48.836;9.174;2023-12-29T05:46:11;2.25;;;1.67;;
48751;SDS011;34544;48.836;9.174;2023-12-29T05:48:37;3.15;;;2.50;;
48751;SDS011;34544;48.836;9.174;2023-12-29T05:51:07;3.40;;;2.53;;
48751;SDS011;34544;48.836;9.174;2023-12-29T05:53:34;3.17;;;2.53;;
48751;SDS011;34544;48.836;9.174;2023-12-29T05:56:00;2.58;;;2.17;;
48751;SDS011;34544;48.836;9.174;2023-12-29T05:58:26;2.50;;;2.03;;
48751;SDS011;34544;48.836;9.174;2023-12-29T06:00:52;2.53;;;2.17;;
48751;SDS011;34544;48.836;9.174;2023-12-29T06:03:17;2.95;;;2.10;;
48751;SDS011;34544;48.836;9.174;2023-12-29T06:05:43;3.97;;;2.63;;
48751;SDS011;34544;48.836;9.174;2023-12-29T06:08:09;2.35;;;1.98;;
48751;SDS011;34544;48.836;9.174;2023-12-29T06:10:35;2.67;;;2.25;;
48751;SDS011;34544;48.836;9.174;2023-12-29T06:13:01;3.97;;;2.17;;
48751;SDS011;34544;48.836;9.174;2023-12-29T06:15:28;2.85;;;2.10;;
48751;SDS011;34544;48.836;9.174;2023-12-29T06:17:54;5.50;;;2.78;;
48751;SDS011;34544;48.836;9.174;2023-12-29T06:20:20;3.15;;;2.63;;
48751;SDS011;34544;48.836;9.174;2023-12-29T06:22:46;3.00;;;2.60;;
48751;SDS011;34544;48.836;9.174;2023-12-29T06:25:12;6.18;;;2.90;;
48751;SDS011;34544;48.836;9.174;2023-12-29T06:27:38;4.03;;;2.40;;
48751;SDS011;34544;48.836;9.174;2023-12-29T06:30:05;2.88;;;2.58;;
48751;SDS011;34544;48.836;9.174;2023-12-29T06:32:36;4.38;;;2.35;;
48751;SDS011;34544;48.836;9.174;2023-12-29T06:35:02;4.90;;;2.70;;
48751;SDS011;34544;48.836;9.174;2023-12-29T06:37:29;4.38;;;2.70;;
48751;SDS011;34544;48.836;9.174;2023-12-29T06:39:54;7.18;;;2.08;;
48751;SDS011;34544;48.836;9.174;2023-12-29T06:42:20;5.80;;;2.88;;
48751;SDS011;34544;48.836;9.174;2023-12-29T06:44:46;3.03;;;2.72;;
48751;SDS011;34544;48.836;9.174;2023-12-29T06:47:12;2.83;;;2.50;;
48751;SDS011;34544;48.836;9.174;2023-12-29T06:49:38;5.40;;;2.55;;
48751;SDS011;34544;48.836;9.174;2023-12-29T06:52:05;3.88;;;2.38;;
48751;SDS011;34544;48.836;9.174;2023-12-29T06:54:30;3.15;;;2.17;;
48751;SDS011;34544;48.836;9.174;2023-12-29T06:56:57;4.20;;;2.42;;
48751;SDS011;34544;48.836;9.174;2023-12-29T06:59:22;2.85;;;2.45;;
48751;SDS011;34544;48.836;9.174;2023-12-29T07:01:48;3.35;;;2.60;;
48751;SDS011;34544;48.836;9.174;2023-12-29T07:04:14;2.60;;;2.17;;
48751;SDS011;34544;48.836;9.174;2023-12-29T07:06:40;2.92;;;2.15;;
48751;SDS011;34544;48.836;9.174;2023-12-29T07:09:06;5.22;;;2.47;;
48751;SDS011;34544;48.836;9.174;2023-12-29T07:11:33;3.40;;;1.90;;
48751;SDS011;34544;48.836;9.174;2023-12-29T07:13:59;3.22;;;2.10;;
48751;SDS011;34544;48.836;9.174;2023-12-29T07:16:25;2.25;;;1.92;;
48751;SDS011;34544;48.836;9.174;2023-12-29T07:18:52;4.30;;;2.10;;
48751;SDS011;34544;48.836;9.174;2023-12-29T07:21:17;2.75;;;1.90;;
48751;SDS011;34544;48.836;9.174;2023-12-29T07:23:43;1.92;;;1.65;;
48751;SDS011;34544;48.836;9.174;2023-12-29T07:26:09;2.00;;;1.80;;
48751;SDS011;34544;48.836;9.174;2023-12-29T07:28:34;2.05;;;1.50;;
48751;SDS011;34544;48.836;9.174;2023-12-29T07:31:00;1.98;;;1.77;;
48751;SDS011;34544;48.836;9.174;2023-12-29T07:33:27;2.50;;;1.95;;
48751;SDS011;34544;48.836;9.174;2023-12-29T07:35:53;1.65;;;1.30;;
48751;SDS011;34544;48.836;9.174;2023-12-29T07:38:19;3.92;;;1.65;;
48751;SDS011;34544;48.836;9.174;2023-12-29T07:40:45;1.75;;;1.63;;
48751;SDS011;34544;48.836;9.174;2023-12-29T07:43:12;3.35;;;2.60;;
48751;SDS011;34544;48.836;9.174;2023-12-29T07:45:38;2.08;;;1.65;;
48751;SDS011;34544;48.836;9.174;2023-12-29T07:48:04;2.00;;;1.77;;
48751;SDS011;34544;48.836;9.174;2023-12-29T07:50:30;2.45;;;1.42;;
48751;SDS011;34544;48.836;9.174;2023-12-29T07:52:56;3.95;;;2.10;;
48751;SDS011;34544;48.836;9.174;2023-12-29T07:55:22;2.15;;;1.70;;
48751;SDS011;34544;48.836;9.174;2023-12-29T07:57:47;2.28;;;1.90;;
48751;SDS011;34544;48.836;9.174;2023-12-29T08:00:16;2.00;;;1.55;;
48751;SDS011;34544;48.836;9.174;2023-12-29T08:02:43;2.45;;;1.55;;
48751;SDS011;34544;48.836;9.174;2023-12-29T08:05:08;5.65;;;2.00;;
48751;SDS011;34544;48.836;9.174;2023-12-29T08:07:34;2.05;;;1.55;;
48751;SDS011;34544;48.836;9.174;2023-12-29T08:10:02;2.20;;;1.75;;
48751;SDS011;34544;48.836;9.174;2023-12-29T08:12:30;2.15;;;1.50;;
48751;SDS011;34544;48.836;9.174;2023-12-29T08:14:55;3.33;;;1.30;;
48751;SDS011;34544;48.836;9.174;2023-12-29T08:17:22;3.08;;;1.50;;
48751;SDS011;34544;48.836;9.174;2023-12-29T08:19:47;1.98;;;1.70;;
48751;SDS011;34544;48.836;9.174;2023-12-29T08:22:13;3.78;;;2.13;;
48751;SDS011;34544;48.836;9.174;2023-12-29T08:24:41;2.25;;;1.85;;
48751;SDS011;34544;48.836;9.174;2023-12-29T08:27:11;2.17;;;1.50;;
48751;SDS011;34544;48.836;9.174;2023-12-29T08:29:38;2.28;;;1.58;;
48751;SDS011;34544;48.836;9.174;2023-12-29T08:32:04;1.83;;;1.58;;
48751;SDS011;34544;48.836;9.174;2023-12-29T08:34:30;2.00;;;1.67;;
48751;SDS011;34544;48.836;9.174;2023-12-29T08:36:56;2.00;;;1.60;;
48751;SDS011;34544;48.836;9.174;2023-12-29T08:39:22;1.67;;;1.20;;
48751;SDS011;34544;48.836;9.174;2023-12-29T08:41:48;1.83;;;1.60;;
48751;SDS011;34544;48.836;9.174;2023-12-29T08:44:16;1.75;;;1.60;;
48751;SDS011;34544;48.836;9.174;2023-12-29T08:46:42;2.28;;;1.63;;
48751;SDS011;34544;48.836;9.174;2023-12-29T08:49:08;2.03;;;1.52;;
48751;SDS011;34544;48.836;9.174;2023-12-29T08:51:34;3.13;;;1.70;;
48751;SDS011;34544;48.836;9.174;2023-12-29T08:53:59;1.35;;;1.25;;
48751;SDS011;34544;48.836;9.174;2023-12-29T08:56:25;1.52;;;1.30;;
48751;SDS011;34544;48.836;9.174;2023-12-29T08:58:51;3.25;;;1.70;;
48751;SDS011;34544;48.836;9.174;2023-12-29T09:01:17;2.28;;;1.95;;
48751;SDS011;34544;48.836;9.174;2023-12-29T09:03:44;2.45;;;1.48;;
48751;SDS011;34544;48.836;9.174;2023-12-29T09:06:10;2.20;;;1.88;;
48751;SDS011;34544;48.836;9.174;2023-12-29T09:08:35;2.75;;;1.70;;
48751;SDS011;34544;48.836;9.174;2023-12-29T09:11:01;2.22;;;1.40;;
48751;SDS011;34544;48.836;9.174;2023-12-29T09:13:27;3.53;;;2.53;;
48751;SDS011;34544;48.836;9.174;2023-12-29T09:15:56;3.15;;;2.33;;
48751;SDS011;34544;48.836;9.174;2023-12-29T09:18:22;2.60;;;2.17;;
48751;SDS011;34544;48.836;9.174;2023-12-29T09:20:49;3.72;;;1.73;;
48751;SDS011;34544;48.836;9.174;2023-12-29T09:23:15;4.78;;;1.95;;
48751;SDS011;34544;48.836;9.174;2023-12-29T09:25:41;3.13;;;2.25;;
48751;SDS011;34544;48.836;9.174;2023-12-29T09:28:06;1.40;;;1.30;;
48751;SDS011;34544;48.836;9.174;2023-12-29T09:30:32;2.40;;;1.63;;
48751;SDS011;34544;48.836;9.174;2023-12-29T09:32:58;2.22;;;1.67;;
48751;SDS011;34544;48.836;9.174;2023-12-29T09:35:24;3.88;;;1.92;;
48751;SDS011;34544;48.836;9.174;2023-12-29T09:37:50;1.88;;;1.55;;
48751;SDS011;34544;48.836;9.174;2023-12-29T09:40:16;2.22;;;1.30;;
48751;SDS011;34544;48.836;9.174;2023-12-29T09:42:42;1.48;;;1.25;;
48751;SDS011;34544;48.836;9.174;2023-12-29T09:45:10;1.23;;;1.10;;
48751;SDS011;34544;48.836;9.174;2023-12-29T09:47:38;2.10;;;1.50;;
48751;SDS011;34544;48.836;9.174;2023-12-29T09:50:10;1.35;;;1.15;;
48751;SDS011;34544;48.836;9.174;2023-12-29T09:52:38;2.17;;;1.27;;
48751;SDS011;34544;48.836;9.174;2023-12-29T09:55:05;1.40;;;1.30;;
48751;SDS011;34544;48.836;9.174;2023-12-29T09:57:38;1.67;;;1.50;;
48751;SDS011;34544;48.836;9.174;2023-12-29T10:00:05;1.63;;;1.48;;
48751;SDS011;34544;48.836;9.174;2023-12-29T10:02:37;2.35;;;1.30;;
48751;SDS011;34544;48.836;9.174;2023-12-29T10:05:04;2.05;;;1.02;;
48751;SDS011;34544;48.836;9.174;2023-12-29T10:07:37;1.33;;;1.05;;
48751;SDS011;34544;48.836;9.174;2023-12-29T10:10:04;2.05;;;0.80;;
48751;SDS011;34544;48.836;9.174;2023-12-29T10:12:34;3.38;;;1.00;;
48751;SDS011;34544;48.836;9.174;2023-12-29T10:23:47;0.90;;;0.82;;
48751;SDS011;34544;48.836;9.174;2023-12-29T10:26:18;1.45;;;0.98;;
48751;SDS011;34544;48.836;9.174;2023-12-29T10:28:46;1.05;;;0.93;;
48751;SDS011;34544;48.836;9.174;2023-12-29T10:31:14;0.88;;;0.80;;
48751;SDS011;34544;48.836;9.174;2023-12-29T10:33:41;1.20;;;1.10;;
48751;SDS011;34544;48.836;9.174;2023-12-29T10:36:06;1.48;;;1.10;;
48751;SDS011;34544;48.836;9.174;2023-12-29T10:38:34;1.80;;;1.15;;
48751;SDS011;34544;48.836;9.174;2023-12-29T10:41:33;2.20;;;0.98;;
48751;SDS011;34544;48.836;9.174;2023-12-29T10:43:52;1.33;;;0.70;;
48751;SDS011;34544;48.836;9.174;2023-12-29T10:46:19;0.85;;;0.85;;
48751;SDS011;34544;48.836;9.174;2023-12-29T10:48:46;1.17;;;0.95;;
48751;SDS011;34544;48.836;9.174;2023-12-29T10:51:11;6.15;;;1.05;;
48751;SDS011;34544;48.836;9.174;2023-12-29T10:53:38;1.50;;;0.70;;
48751;SDS011;34544;48.836;9.174;2023-12-29T10:56:03;1.05;;;0.85;;
48751;SDS011;34544;48.836;9.174;2023-12-29T10:58:30;0.65;;;0.65;;
48751;SDS011;34544;48.836;9.174;2023-12-29T11:00:57;1.13;;;0.90;;
48751;SDS011;34544;48.836;9.174;2023-12-29T11:03:24;1.27;;;0.70;;
48751;SDS011;34544;48.836;9.174;2023-12-29T11:05:51;1.38;;;0.80;;
48751;SDS011;34544;48.836;9.174;2023-12-29T11:08:25;0.80;;;0.68;;
48751;SDS011;34544;48.836;9.174;2023-12-29T11:10:51;1.55;;;0.85;;
48751;SDS011;34544;48.836;9.174;2023-12-29T11:13:19;0.75;;;0.75;;
48751;SDS011;34544;48.836;9.174;2023-12-29T11:15:45;0.82;;;0.70;;
48751;SDS011;34544;48.836;9.174;2023-12-29T11:18:13;1.08;;;0.98;;
48751;SDS011;34544;48.836;9.174;2023-12-29T11:20:40;0.80;;;0.73;;
48751;SDS011;34544;48.836;9.174;2023-12-29T11:23:07;3.42;;;0.82;;
48751;SDS011;34544;48.836;9.174;2023-12-29T11:25:34;1.00;;;0.68;;
48751;SDS011;34544;48.836;9.174;2023-12-29T11:28:01;1.98;;;0.80;;
48751;SDS011;34544;48.836;9.174;2023-12-29T11:30:27;0.55;;;0.55;;
48751;SDS011;34544;48.836;9.174;2023-12-29T11:32:55;1.45;;;0.70;;
48751;SDS011;34544;48.836;9.174;2023-12-29T11:35:44;0.98;;;0.73;;
48751;SDS011;34544;48.836;9.174;2023-12-29T11:43:36;0.90;;;0.80;;
48751;SDS011;34544;48.836;9.174;2023-12-29T11:46:02;2.45;;;1.00;;
48751;SDS011;34544;48.836;9.174;2023-12-29T11:51:29;2.47;;;1.10;;
48751;SDS011;34544;48.836;9.174;2023-12-29T11:54:05;0.63;;;0.60;;
48751;SDS011;34544;48.836;9.174;2023-12-29T11:56:31;1.10;;;0.70;;
48751;SDS011;34544;48.836;9.174;2023-12-29T11:59:17;1.02;;;0.70;;
48751;SDS011;34544;48.836;9.174;2023-12-29T12:01:46;3.22;;;0.85;;
48751;SDS011;34544;48.836;9.174;2023-12-29T12:09:42;1.27;;;0.55;;
48751;SDS011;34544;48.836;9.174;2023-12-29T12:12:09;0.80;;;0.80;;
48751;SDS011;34544;48.836;9.174;2023-12-29T12:17:12;1.02;;;0.82;;
48751;SDS011;34544;48.836;9.174;2023-12-29T12:19:52;1.40;;;0.77;;
48751;SDS011;34544;48.836;9.174;2023-12-29T12:22:29;1.55;;;0.80;;
48751;SDS011;34544;48.836;9.174;2023-12-29T12:24:57;0.73;;;0.55;;
48751;SDS011;34544;48.836;9.174;2023-12-29T12:27:25;0.80;;;0.68;;
48751;SDS011;34544;48.836;9.174;2023-12-29T12:29:55;0.80;;;0.60;;
48751;SDS011;34544;48.836;9.174;2023-12-29T12:32:23;1.13;;;0.60;;
48751;SDS011;34544;48.836;9.174;2023-12-29T12:34:50;1.60;;;0.88;;
48751;SDS011;34544;48.836;9.174;2023-12-29T12:37:22;0.50;;;0.50;;
48751;SDS011;34544;48.836;9.174;2023-12-29T12:39:51;1.02;;;0.80;;
48751;SDS011;34544;48.836;9.174;2023-12-29T12:42:18;0.77;;;0.77;;
48751;SDS011;34544;48.836;9.174;2023-12-29T12:47:15;1.38;;;0.90;;
48751;SDS011;34544;48.836;9.174;2023-12-29T12:49:44;0.80;;;0.80;;
48751;SDS011;34544;48.836;9.174;2023-12-29T12:52:10;2.15;;;1.25;;
48751;SDS011;34544;48.836;9.174;2023-12-29T12:54:36;3.35;;;0.98;;
48751;SDS011;34544;48.836;9.174;2023-12-29T12:57:02;0.65;;;0.65;;
48751;SDS011;34544;48.836;9.174;2023-12-29T12:59:28;1.85;;;0.95;;
48751;SDS011;34544;48.836;9.174;2023-12-29T13:01:54;0.90;;;0.80;;
48751;SDS011;34544;48.836;9.174;2023-12-29T13:04:20;1.17;;;0.95;;
48751;SDS011;34544;48.836;9.174;2023-12-29T13:06:46;1.55;;;1.10;;
48751;SDS011;34544;48.836;9.174;2023-12-29T13:09:12;2.08;;;1.02;;
48751;SDS011;34544;48.836;9.174;2023-12-29T13:11:39;2.65;;;1.00;;
48751;SDS011;34544;48.836;9.174;2023-12-29T13:14:08;1.67;;;1.10;;
48751;SDS011;34544;48.836;9.174;2023-12-29T13:21:50;1.83;;;0.85;;
48751;SDS011;34544;48.836;9.174;2023-12-29T13:24:21;1.50;;;1.00;;
48751;SDS011;34544;48.836;9.174;2023-12-29T13:26:47;1.10;;;0.80;;
48751;SDS011;34544;48.836;9.174;2023-12-29T13:29:23;2.50;;;1.95;;
48751;SDS011;34544;48.836;9.174;2023-12-29T13:31:54;1.42;;;1.10;;
48751;SDS011;34544;48.836;9.174;2023-12-29T13:34:35;1.17;;;0.95;;
48751;SDS011;34544;48.836;9.174;2023-12-29T13:37:20;1.45;;;0.88;;
48751;SDS011;34544;48.836;9.174;2023-12-29T13:43:01;1.10;;;1.00;;
48751;SDS011;34544;48.836;9.174;2023-12-29T13:45:29;1.10;;;0.90;;
48751;SDS011;34544;48.836;9.174;2023-12-29T13:47:56;1.08;;;0.85;;
48751;SDS011;34544;48.836;9.174;2023-12-29T13:50:24;3.17;;;1.30;;
48751;SDS011;34544;48.836;9.174;2023-12-29T13:52:50;1.08;;;0.80;;
48751;SDS011;34544;48.836;9.174;2023-12-29T13:55:22;2.00;;;0.98;;
48751;SDS011;34544;48.836;9.174;2023-12-29T13:57:48;2.42;;;0.98;;
48751;SDS011;34544;48.836;9.174;2023-12-29T14:00:18;1.77;;;1.15;;
48751;SDS011;34544;48.836;9.174;2023-12-29T14:02:57;1.65;;;0.85;;
48751;SDS011;34544;48.836;9.174;2023-12-29T14:05:28;0.80;;;0.80;;
48751;SDS011;34544;48.836;9.174;2023-12-29T14:08:00;0.80;;;0.65;;
48751;SDS011;34544;48.836;9.174;2023-12-29T14:10:34;1.00;;;0.80;;
48751;SDS011;34544;48.836;9.174;2023-12-29T14:15:33;3.13;;;0.73;;
48751;SDS011;34544;48.836;9.174;2023-12-29T14:18:28;1.75;;;1.08;;
48751;SDS011;34544;48.836;9.174;2023-12-29T14:20:59;0.68;;;0.68;;
48751;SDS011;34544;48.836;9.174;2023-12-29T14:23:25;1.38;;;1.00;;
48751;SDS011;34544;48.836;9.174;2023-12-29T14:25:51;1.70;;;1.10;;
48751;SDS011;34544;48.836;9.174;2023-12-29T14:28:17;1.17;;;0.85;;
48751;SDS011;34544;48.836;9.174;2023-12-29T14:30:45;1.10;;;0.95;;
48751;SDS011;34544;48.836;9.174;2023-12-29T14:33:11;0.85;;;0.70;;
48751;SDS011;34544;48.836;9.174;2023-12-29T14:35:37;0.90;;;0.80;;
48751;SDS011;34544;48.836;9.174;2023-12-29T14:38:03;1.73;;;0.90;;
48751;SDS011;34544;48.836;9.174;2023-12-29T14:40:30;1.48;;;0.90;;
48751;SDS011;34544;48.836;9.174;2023-12-29T14:42:59;0.88;;;0.57;;
48751;SDS011;34544;48.836;9.174;2023-12-29T14:45:25;0.93;;;0.82;;
48751;SDS011;34544;48.836;9.174;2023-12-29T14:47:55;2.40;;;0.77;;
48751;SDS011;34544;48.836;9.174;2023-12-29T14:50:22;0.85;;;0.80;;
48751;SDS011;34544;48.836;9.174;2023-12-29T14:52:48;2.40;;;0.93;;
48751;SDS011;34544;48.836;9.174;2023-12-29T14:55:14;1.95;;;1.00;;
48751;SDS011;34544;48.836;9.174;2023-12-29T14:57:39;1.80;;;1.00;;
48751;SDS011;34544;48.836;9.174;2023-12-29T15:00:05;1.15;;;0.90;;
48751;SDS011;34544;48.836;9.174;2023-12-29T15:02:31;1.05;;;0.95;;
48751;SDS011;34544;48.836;9.174;2023-12-29T15:04:57;1.63;;;1.30;;
48751;SDS011;34544;48.836;9.174;2023-12-29T15:07:23;2.05;;;1.42;;
48751;SDS011;34544;48.836;9.174;2023-12-29T15:09:54;0.93;;;0.87;;
48751;SDS011;34544;48.836;9.174;2023-12-29T15:12:20;1.23;;;1.00;;
48751;SDS011;34544;48.836;9.174;2023-12-29T15:14:46;1.25;;;0.80;;
48751;SDS011;34544;48.836;9.174;2023-12-29T15:17:11;1.65;;;1.02;;
48751;SDS011;34544;48.836;9.174;2023-12-29T15:19:37;2.88;;;1.98;;
48751;SDS011;34544;48.836;9.174;2023-12-29T15:22:02;2.03;;;0.80;;
48751;SDS011;34544;48.836;9.174;2023-12-29T15:24:28;2.03;;;1.23;;
48751;SDS011;34544;48.836;9.174;2023-12-29T15:26:54;1.60;;;1.05;;
48751;SDS011;34544;48.836;9.174;2023-12-29T15:29:20;1.17;;;0.77;;